Time;durP1;ratioP1;P1;durP2;ratioP2;P2;SDS_P1;SDS_P2;PMS_P1;PMS_P2;Temp;Humidity;BMP_temperature;BMP_pressure;BME280_temperature;BME280_humidity;BME280_pressure;Samples;Min_cycle;Max_cycle;Signal;HPM_P1;HPM_P2
2023/02/16 00:00:18;;;;;;;49.08;35.78;;;5.00;99.90;;;;;;4950448;28;20473;-80
2023/02/16 00:02:44;;;;;;;46.03;34.90;;;4.70;99.90;;;;;;4983474;28;20043;-80
2023/02/16 00:05:31;;;;;;;49.15;35.97;;;5.20;99.90;;;;;;4950610;28;20074;-80
2023/02/16 00:07:58;;;;;;;46.58;36.63;;;6.10;99.90;;;;;;4968482;28;20035;-80
2023/02/16 00:10:25;;;;;;;48.88;36.30;;;5.10;99.90;;;;;;4983894;28;20492;-80
2023/02/16 00:15:36;;;;;;;52.35;34.47;;;5.30;99.90;;;;;;4966666;28;20145;-80
2023/02/16 00:18:09;;;;;;;50.65;36.92;;;5.70;99.90;;;;;;4955428;28;20059;-80
2023/02/16 00:20:35;;;;;;;50.45;36.15;;;5.30;99.90;;;;;;4968589;28;20034;-80
2023/02/16 00:23:00;;;;;;;49.63;37.40;;;5.20;99.90;;;;;;4957841;28;20043;-79
2023/02/16 00:25:26;;;;;;;51.95;36.55;;;5.50;99.90;;;;;;4959856;28;20043;-80
2023/02/16 00:27:52;;;;;;;45.70;34.97;;;5.40;99.90;;;;;;4961841;28;20473;-80
2023/02/16 00:30:20;;;;;;;50.58;36.65;;;5.10;99.90;;;;;;4978040;28;20074;-80
2023/02/16 00:32:46;;;;;;;50.47;36.53;;;5.30;99.90;;;;;;4971211;28;20068;-80
2023/02/16 00:35:17;;;;;;;48.83;35.50;;;6.00;99.90;;;;;;4970102;28;20070;-80
2023/02/16 00:37:42;;;;;;;46.67;35.95;;;5.20;99.90;;;;;;4974644;28;20035;-80
2023/02/16 00:40:09;;;;;;;50.25;36.00;;;5.50;99.90;;;;;;4977545;28;20248;-80
2023/02/16 00:42:36;;;;;;;51.03;36.83;;;5.30;99.90;;;;;;4959967;28;20050;-80
2023/02/16 00:45:03;;;;;;;50.45;36.63;;;5.40;99.90;;;;;;4973281;28;20089;-82
2023/02/16 00:47:38;;;;;;;48.33;36.13;;;5.40;99.90;;;;;;4976245;28;20117;-79
2023/02/16 00:50:16;;;;;;;44.88;34.65;;;5.70;99.90;;;;;;4967670;28;20092;-80
2023/02/16 00:52:42;;;;;;;47.17;35.45;;;5.40;99.90;;;;;;4971238;28;20034;-79
2023/02/16 00:55:17;;;;;;;48.25;35.85;;;5.30;99.90;;;;;;4967952;28;20053;-80
2023/02/16 00:57:48;;;;;;;47.40;35.08;;;5.30;99.90;;;;;;4967575;28;20069;-83
2023/02/16 01:00:25;;;;;;;48.38;34.95;;;5.50;99.90;;;;;;4967464;28;20141;-83
2023/02/16 01:02:54;;;;;;;51.45;35.17;;;6.00;99.90;;;;;;4983231;28;20130;-80
2023/02/16 01:05:19;;;;;;;48.30;36.65;;;5.60;99.90;;;;;;4967614;28;20050;-80
2023/02/16 01:11:06;;;;;;;53.08;37.08;;;5.20;99.90;;;;;;4967370;28;20477;-79
2023/02/16 01:13:46;;;;;;;48.63;36.95;;;5.50;99.90;;;;;;4949814;28;20113;-80
2023/02/16 01:16:26;;;;;;;50.85;37.58;;;5.20;99.90;;;;;;4952808;28;20057;-80
2023/02/16 01:18:52;;;;;;;49.88;37.80;;;5.20;99.90;;;;;;4951902;28;20105;-80
2023/02/16 01:21:20;;;;;;;48.38;36.55;;;5.20;99.90;;;;;;4952527;28;20026;-80
2023/02/16 01:23:46;;;;;;;53.50;36.15;;;5.30;99.90;;;;;;4967175;28;20042;-80
2023/02/16 01:26:18;;;;;;;48.05;36.10;;;5.60;99.90;;;;;;4966609;28;20031;-80
2023/02/16 01:28:46;;;;;;;48.90;37.80;;;5.30;99.90;;;;;;4972723;28;20062;-79
2023/02/16 01:31:13;;;;;;;47.08;36.88;;;5.40;99.90;;;;;;4986169;28;20070;-80
2023/02/16 01:33:40;;;;;;;52.88;38.05;;;6.20;99.90;;;;;;4953788;28;20054;-80
2023/02/16 01:36:21;;;;;;;50.40;37.88;;;6.00;99.90;;;;;;4968259;28;20038;-80
2023/02/16 01:38:46;;;;;;;49.78;36.88;;;5.30;99.90;;;;;;4968417;28;20078;-81
2023/02/16 01:41:31;;;;;;;49.63;38.67;;;5.90;99.90;;;;;;4971027;28;20073;-80
2023/02/16 01:44:16;;;;;;;50.63;39.05;;;6.10;99.90;;;;;;4983544;28;20700;-80
2023/02/16 01:47:00;;;;;;;50.47;37.15;;;5.80;99.90;;;;;;4968520;28;20062;-80
2023/02/16 01:49:26;;;;;;;57.28;38.42;;;5.00;99.90;;;;;;4968051;28;20049;-81
2023/02/16 01:52:07;;;;;;;52.20;39.20;;;5.30;99.90;;;;;;4954205;28;20038;-80
2023/02/16 01:54:43;;;;;;;50.45;37.60;;;5.10;99.90;;;;;;4983381;28;20057;-80
2023/02/16 01:57:24;;;;;;;47.88;36.83;;;5.00;99.90;;;;;;4951254;28;20046;-81
2023/02/16 01:59:49;;;;;;;52.13;37.97;;;5.30;99.90;;;;;;4969952;28;20902;-81
2023/02/16 02:02:26;;;;;;;45.35;36.88;;;5.00;99.90;;;;;;4954324;28;20106;-80
2023/02/16 02:05:35;;;;;;;51.00;38.90;;;5.00;99.90;;;;;;4968637;28;20047;-80
2023/02/16 02:08:14;;;;;;;49.13;38.08;;;4.90;99.90;;;;;;4954697;28;20081;-80
2023/02/16 02:10:52;;;;;;;52.95;39.53;;;5.00;99.90;;;;;;4982915;28;20043;-81
2023/02/16 02:13:31;;;;;;;50.13;38.72;;;4.90;99.90;;;;;;4967356;28;20083;-80
2023/02/16 02:15:58;;;;;;;50.90;40.17;;;5.00;99.90;;;;;;4983345;28;20043;-80
2023/02/16 02:18:25;;;;;;;53.00;39.28;;;6.00;99.90;;;;;;4949625;28;20053;-80
2023/02/16 02:24:13;;;;;;;50.78;38.10;;;4.90;99.90;;;;;;4968621;28;20066;-80
2023/02/16 02:26:56;;;;;;;52.88;41.28;;;4.90;99.90;;;;;;4949102;28;20065;-80
2023/02/16 02:29:25;;;;;;;53.95;40.42;;;4.90;99.90;;;;;;4964987;28;20134;-80
2023/02/16 02:32:33;;;;;;;55.42;41.50;;;4.80;99.90;;;;;;4984050;28;20042;-80
2023/02/16 02:35:20;;;;;;;53.95;42.33;;;4.90;99.90;;;;;;4941931;28;20065;-80
2023/02/16 02:38:20;;;;;;;53.88;39.20;;;4.90;99.90;;;;;;4982772;28;20135;-80
2023/02/16 02:40:53;;;;;;;54.05;42.05;;;4.80;99.90;;;;;;4954379;28;20046;-80
2023/02/16 02:43:25;;;;;;;55.67;41.53;;;4.80;99.90;;;;;;4981348;28;20120;-80
2023/02/16 02:46:00;;;;;;;55.00;41.03;;;4.90;99.90;;;;;;4951442;28;20054;-80
2023/02/16 02:48:30;;;;;;;55.08;41.42;;;4.80;99.90;;;;;;4981819;28;20041;-80
2023/02/16 03:02:48;;;;;;;55.88;41.60;;;4.90;99.90;;;;;;4964867;28;20113;-80
2023/02/16 03:05:15;;;;;;;51.75;41.85;;;5.20;99.90;;;;;;4981032;28;20046;-80
2023/02/16 03:07:45;;;;;;;54.67;41.95;;;5.10;99.90;;;;;;4955093;28;20147;-80
2023/02/16 03:13:17;;;;;;;54.42;42.05;;;4.90;99.90;;;;;;4977643;28;20066;-79
2023/02/16 03:15:47;;;;;;;58.17;43.38;;;5.20;99.90;;;;;;4966069;28;20323;-80
2023/02/16 03:29:24;;;;;;;55.60;43.10;;;5.30;99.90;;;;;;4978601;28;20055;-79
2023/02/16 03:31:54;;;;;;;54.03;43.15;;;5.10;99.90;;;;;;4977285;28;20129;-79
2023/02/16 03:34:23;;;;;;;57.92;43.33;;;5.40;99.90;;;;;;4947282;28;20043;-78
2023/02/16 03:36:52;;;;;;;57.30;45.13;;;5.40;99.90;;;;;;4963598;28;20075;-79
2023/02/16 03:39:19;;;;;;;54.42;42.20;;;5.20;99.90;;;;;;4948525;28;20174;-79
2023/02/16 03:41:48;;;;;;;56.83;43.35;;;5.50;99.90;;;;;;4960955;28;20680;-79
2023/02/16 03:44:15;;;;;;;56.70;42.38;;;5.50;99.90;;;;;;4965072;28;20035;-79
2023/02/16 03:46:40;;;;;;;55.25;43.42;;;5.40;99.90;;;;;;4981547;28;20050;-79
2023/02/16 03:49:06;;;;;;;57.05;44.65;;;6.10;99.90;;;;;;4968568;28;20069;-79
2023/02/16 03:51:32;;;;;;;54.60;42.55;;;5.80;99.90;;;;;;4960153;28;20519;-80
2023/02/16 03:53:58;;;;;;;54.15;43.15;;;5.80;99.90;;;;;;4952309;28;20050;-80
2023/02/16 03:56:24;;;;;;;55.70;42.40;;;5.80;99.90;;;;;;4973045;28;20042;-80
2023/02/16 03:58:49;;;;;;;53.88;42.38;;;5.50;99.90;;;;;;4958360;28;21731;-81
2023/02/16 04:01:15;;;;;;;55.33;43.00;;;6.00;99.90;;;;;;4972773;28;20035;-79
2023/02/16 04:03:41;;;;;;;52.42;41.70;;;5.50;99.90;;;;;;4972241;28;20041;-82
2023/02/16 04:06:07;;;;;;;55.85;42.72;;;5.70;99.90;;;;;;4971791;28;20113;-80
2023/02/16 04:08:32;;;;;;;52.47;41.63;;;5.60;99.90;;;;;;4970039;28;20046;-79
2023/02/16 04:12:34;;;;;;;57.13;42.08;;;5.50;99.90;;;;;;4969650;28;20138;-79
2023/02/16 04:13:46;;;;;;;53.53;41.50;;;6.20;99.90;;;;;;4964574;28;20058;-80
2023/02/16 04:16:12;;;;;;;57.08;41.78;;;6.00;99.90;;;;;;4966095;28;20058;-79
2023/02/16 04:18:38;;;;;;;55.42;41.88;;;6.00;99.90;;;;;;4966245;28;20129;-79
2023/02/16 04:21:03;;;;;;;56.05;42.78;;;5.70;99.90;;;;;;4950565;28;20035;-79
2023/02/16 04:23:29;;;;;;;54.85;42.67;;;5.70;99.90;;;;;;4962723;28;20669;-79
2023/02/16 04:25:58;;;;;;;56.25;42.83;;;5.90;99.90;;;;;;4970679;28;20042;-79
2023/02/16 04:28:23;;;;;;;57.63;44.55;;;5.90;99.90;;;;;;4953455;28;20042;-79
2023/02/16 04:30:50;;;;;;;54.40;43.55;;;6.00;99.90;;;;;;4970382;28;20484;-80
2023/02/16 04:33:16;;;;;;;55.40;44.20;;;5.70;99.90;;;;;;4965744;28;20034;-80
2023/02/16 04:35:44;;;;;;;54.47;41.80;;;5.50;99.90;;;;;;4963921;28;20051;-79
2023/02/16 04:38:10;;;;;;;53.22;42.38;;;6.10;99.90;;;;;;4964294;28;20046;-80
2023/02/16 04:40:36;;;;;;;53.25;41.22;;;5.80;99.90;;;;;;4966203;28;20595;-80
2023/02/16 04:43:01;;;;;;;52.97;41.65;;;6.00;99.90;;;;;;4950910;28;20389;-79
2023/02/16 04:45:27;;;;;;;55.20;42.88;;;5.80;99.90;;;;;;4966955;28;20034;-80
2023/02/16 04:47:56;;;;;;;56.63;42.33;;;5.80;99.90;;;;;;4949142;28;20042;-80
2023/02/16 04:50:24;;;;;;;52.17;42.35;;;6.50;99.90;;;;;;4968160;28;20043;-80
2023/02/16 04:52:51;;;;;;;53.90;42.30;;;6.10;99.90;;;;;;4967813;28;20169;-79
2023/02/16 04:55:22;;;;;;;53.67;41.00;;;6.30;99.90;;;;;;4980463;28;20121;-80
2023/02/16 04:57:48;;;;;;;54.90;43.30;;;5.90;99.90;;;;;;4967164;28;20074;-79
2023/02/16 05:00:14;;;;;;;56.92;42.45;;;5.60;99.90;;;;;;4966702;28;20085;-79
2023/02/16 05:02:39;;;;;;;53.65;42.60;;;5.90;99.90;;;;;;4965881;28;20046;-80
2023/02/16 05:05:06;;;;;;;55.30;43.17;;;6.40;99.90;;;;;;4951964;28;20105;-80
2023/02/16 05:07:31;;;;;;;54.88;41.92;;;5.90;99.90;;;;;;4949312;28;20482;-80
2023/02/16 05:09:57;;;;;;;56.38;41.70;;;5.90;99.90;;;;;;4952766;28;20042;-80
2023/02/16 05:15:07;;;;;;;54.10;41.95;;;5.90;99.90;;;;;;4966728;28;20153;-79
2023/02/16 05:17:33;;;;;;;61.97;43.20;;;5.90;99.90;;;;;;4948105;28;20173;-80
2023/02/16 05:20:00;;;;;;;53.63;40.78;;;6.20;99.90;;;;;;4961582;28;20074;-80
2023/02/16 05:22:33;;;;;;;54.60;41.13;;;6.30;99.90;;;;;;4963163;28;20492;-79
2023/02/16 05:25:01;;;;;;;52.60;41.50;;;5.90;99.90;;;;;;4945906;28;20124;-79
2023/02/16 05:27:29;;;;;;;52.58;41.03;;;5.90;99.90;;;;;;4959678;28;20078;-80
2023/02/16 05:29:55;;;;;;;51.40;40.90;;;6.00;99.90;;;;;;4974635;28;20058;-78
2023/02/16 05:32:21;;;;;;;48.03;40.58;;;6.70;99.90;;;;;;4963668;28;20038;-78
2023/02/16 05:34:46;;;;;;;51.40;40.65;;;5.30;99.90;;;;;;4954145;28;20062;-79
2023/02/16 05:37:14;;;;;;;51.97;39.60;;;6.50;99.90;;;;;;4953031;28;20125;-80
2023/02/16 05:39:40;;;;;;;54.00;41.33;;;5.70;99.90;;;;;;4964230;28;20103;-79
2023/02/16 05:42:06;;;;;;;52.55;41.67;;;5.90;99.90;;;;;;4960403;28;20050;-80
2023/02/16 05:44:34;;;;;;;51.10;42.25;;;5.90;99.90;;;;;;4966394;28;20046;-81
2023/02/16 05:47:01;;;;;;;55.10;41.35;;;6.60;99.90;;;;;;4963402;28;20042;-81
2023/02/16 05:49:26;;;;;;;54.45;41.28;;;6.30;99.90;;;;;;4959273;28;20513;-79
2023/02/16 05:51:52;;;;;;;49.83;39.70;;;6.00;99.90;;;;;;4977815;28;20039;-80
2023/02/16 05:54:18;;;;;;;54.80;40.85;;;6.80;99.90;;;;;;4946369;28;20133;-80
2023/02/16 05:56:45;;;;;;;62.75;42.67;;;5.90;99.90;;;;;;4963949;28;20039;-81
2023/02/16 05:59:12;;;;;;;53.05;41.22;;;6.20;99.90;;;;;;4948195;28;20043;-80
2023/02/16 06:01:39;;;;;;;55.15;39.90;;;6.00;99.90;;;;;;4965276;28;20045;-81
2023/02/16 06:04:08;;;;;;;50.72;41.90;;;6.20;99.90;;;;;;4962713;28;20078;-80
2023/02/16 06:06:36;;;;;;;55.53;40.10;;;7.30;99.90;;;;;;4946087;28;21655;-80
2023/02/16 06:09:03;;;;;;;52.40;41.42;;;6.10;99.90;;;;;;4950052;28;20091;-80
2023/02/16 06:11:34;;;;;;;52.45;39.97;;;6.40;99.90;;;;;;4961977;28;20669;-80
2023/02/16 06:14:04;;;;;;;54.70;41.78;;;6.10;99.90;;;;;;4966718;28;20049;-80
2023/02/16 06:16:32;;;;;;;53.22;40.55;;;6.10;99.90;;;;;;4965140;28;20107;-80
2023/02/16 06:18:58;;;;;;;54.72;42.30;;;6.00;99.90;;;;;;4963018;28;20143;-80
2023/02/16 06:21:28;;;;;;;49.47;40.25;;;6.50;99.90;;;;;;4965908;28;20035;-80
2023/02/16 06:23:55;;;;;;;47.85;40.72;;;6.00;99.90;;;;;;4945464;28;20067;-80
2023/02/16 06:26:20;;;;;;;52.33;40.97;;;6.10;99.90;;;;;;4962452;28;20125;-80
2023/02/16 06:28:46;;;;;;;49.25;41.00;;;6.20;99.90;;;;;;4947711;28;20197;-79
2023/02/16 06:31:12;;;;;;;50.95;42.20;;;6.40;99.90;;;;;;4962417;28;20031;-81
2023/02/16 06:33:38;;;;;;;52.33;41.75;;;6.20;99.90;;;;;;4968329;28;20086;-80
2023/02/16 06:36:04;;;;;;;53.58;43.10;;;6.00;99.90;;;;;;4957873;28;20050;-79
2023/02/16 06:38:29;;;;;;;55.75;42.17;;;6.10;99.90;;;;;;4954917;28;20125;-78
2023/02/16 06:40:55;;;;;;;54.95;41.35;;;6.00;99.90;;;;;;4974512;28;20810;-78
2023/02/16 06:43:21;;;;;;;50.35;40.92;;;6.10;99.90;;;;;;4961347;28;20045;-79
2023/02/16 06:45:47;;;;;;;54.25;42.08;;;6.30;99.90;;;;;;4950908;28;20051;-82
2023/02/16 06:48:13;;;;;;;46.50;39.13;;;6.20;99.90;;;;;;4950339;28;20068;-80
2023/02/16 06:50:39;;;;;;;55.63;41.38;;;6.30;99.90;;;;;;4959368;28;20050;-83
2023/02/16 06:53:05;;;;;;;45.63;39.40;;;6.10;99.90;;;;;;4951598;28;20038;-81
2023/02/16 06:55:35;;;;;;;53.10;41.63;;;6.50;99.90;;;;;;4947714;28;20042;-81
2023/02/16 06:58:05;;;;;;;54.63;41.78;;;5.70;99.90;;;;;;4962000;28;20576;-81
2023/02/16 07:00:32;;;;;;;55.25;41.45;;;6.40;99.90;;;;;;4961682;28;20035;-81
2023/02/16 07:02:58;;;;;;;51.28;40.60;;;6.20;99.90;;;;;;4946470;28;20380;-81
2023/02/16 07:05:26;;;;;;;55.42;41.53;;;6.40;99.90;;;;;;4948536;28;20194;-82
2023/02/16 07:07:52;;;;;;;50.72;41.58;;;6.20;99.90;;;;;;4963313;28;20054;-81
2023/02/16 07:10:20;;;;;;;53.70;44.33;;;6.30;99.90;;;;;;4976803;28;20042;-82
2023/02/16 07:12:47;;;;;;;54.10;41.83;;;6.20;99.90;;;;;;4962051;28;20042;-80
2023/02/16 07:15:13;;;;;;;52.88;41.38;;;6.80;99.90;;;;;;4949760;28;20053;-81
2023/02/16 07:17:39;;;;;;;49.28;40.88;;;6.70;99.90;;;;;;4967404;28;20123;-81
2023/02/16 07:20:06;;;;;;;49.15;41.38;;;6.90;99.90;;;;;;4974084;28;20094;-81
2023/02/16 07:22:32;;;;;;;50.17;40.25;;;6.30;99.90;;;;;;4972154;28;20073;-82
2023/02/16 07:24:59;;;;;;;55.88;43.83;;;6.60;99.90;;;;;;4952294;28;20119;-82
2023/02/16 07:27:26;;;;;;;47.95;41.15;;;6.80;99.90;;;;;;4970824;28;20038;-81
2023/02/16 07:29:51;;;;;;;50.33;41.30;;;6.60;99.90;;;;;;4973118;28;20560;-82
2023/02/16 07:32:17;;;;;;;58.28;41.53;;;7.00;99.90;;;;;;4955675;28;20039;-80
2023/02/16 07:34:44;;;;;;;54.45;41.05;;;7.10;99.90;;;;;;4972026;28;20034;-80
2023/02/16 07:37:10;;;;;;;53.33;41.85;;;6.50;99.90;;;;;;4989088;28;20066;-81
2023/02/16 07:39:39;;;;;;;48.63;41.60;;;6.50;99.90;;;;;;4974167;28;20092;-80
2023/02/16 07:42:14;;;;;;;52.28;43.10;;;6.80;99.90;;;;;;4959838;28;20039;-81
2023/02/16 07:44:40;;;;;;;53.28;41.63;;;6.50;99.90;;;;;;4976791;28;20042;-80
2023/02/16 07:47:06;;;;;;;48.83;41.63;;;6.60;99.90;;;;;;4975498;28;20045;-81
2023/02/16 07:49:32;;;;;;;55.63;42.60;;;6.80;99.90;;;;;;4970619;28;20516;-80
2023/02/16 07:52:11;;;;;;;52.47;41.72;;;6.80;99.90;;;;;;4973792;28;20651;-80
2023/02/16 07:54:53;;;;;;;53.33;41.92;;;6.60;99.90;;;;;;4970023;28;20520;-83
2023/02/16 07:57:27;;;;;;;49.25;39.35;;;7.20;99.90;;;;;;4958298;28;20051;-81
2023/02/16 08:00:06;;;;;;;48.85;41.60;;;6.60;99.90;;;;;;4988001;28;20046;-81
2023/02/16 08:02:37;;;;;;;55.85;40.95;;;6.60;99.90;;;;;;4989601;28;20090;-82
2023/02/16 08:05:11;;;;;;;58.10;43.63;;;6.90;99.90;;;;;;4992373;28;20125;-81
2023/02/16 08:07:54;;;;;;;52.03;43.20;;;6.70;99.90;;;;;;4976020;28;20047;-81
2023/02/16 08:10:23;;;;;;;54.85;43.67;;;6.60;99.90;;;;;;4957532;28;20043;-81
2023/02/16 08:12:50;;;;;;;55.47;43.03;;;6.60;99.90;;;;;;4971027;28;20130;-81
2023/02/16 08:15:22;;;;;;;56.05;42.67;;;7.60;99.90;;;;;;4978817;28;20050;-82
2023/02/16 08:17:48;;;;;;;55.35;45.72;;;6.90;99.90;;;;;;4955754;28;20110;-81
2023/02/16 08:20:14;;;;;;;59.58;47.15;;;6.60;99.90;;;;;;4957051;28;20510;-81
2023/02/16 08:22:40;;;;;;;53.50;44.42;;;6.60;99.90;;;;;;4989229;28;21070;-81
2023/02/16 08:25:06;;;;;;;54.90;46.58;;;7.40;99.90;;;;;;4957856;28;20057;-82
2023/02/16 08:27:32;;;;;;;57.13;45.90;;;6.70;99.90;;;;;;4972234;28;20038;-84
2023/02/16 08:29:58;;;;;;;53.70;44.50;;;6.80;99.90;;;;;;4973971;28;20121;-82
2023/02/16 08:32:24;;;;;;;60.05;45.83;;;6.60;99.90;;;;;;4963056;28;20070;-82
2023/02/16 08:34:50;;;;;;;55.55;43.92;;;6.70;99.90;;;;;;4963362;28;20101;-81
2023/02/16 08:37:18;;;;;;;51.95;43.90;;;7.50;99.90;;;;;;4959750;28;20052;-81
2023/02/16 08:39:47;;;;;;;51.22;42.92;;;6.90;99.90;;;;;;4972374;28;20454;-81
2023/02/16 08:42:12;;;;;;;51.85;43.00;;;6.90;99.90;;;;;;4970687;28;20074;-81
2023/02/16 08:44:39;;;;;;;53.10;41.92;;;7.30;99.90;;;;;;4970734;28;20531;-80
2023/02/16 08:47:04;;;;;;;55.88;44.22;;;6.90;99.90;;;;;;4974884;28;20041;-81
2023/02/16 08:49:30;;;;;;;56.65;43.20;;;7.10;99.90;;;;;;4955842;28;20055;-80
2023/02/16 08:51:57;;;;;;;56.28;44.35;;;6.80;99.90;;;;;;4971390;28;20039;-80
2023/02/16 08:54:26;;;;;;;52.38;42.72;;;7.60;99.90;;;;;;4955048;28;20093;-80
2023/02/16 08:56:55;;;;;;;55.42;42.58;;;7.00;99.90;;;;;;4954553;28;20039;-80
2023/02/16 08:59:21;;;;;;;53.03;42.28;;;7.30;99.90;;;;;;4977335;28;20090;-80
2023/02/16 09:01:48;;;;;;;57.13;44.28;;;7.90;99.90;;;;;;4957551;28;20047;-80
2023/02/16 09:04:16;;;;;;;53.38;42.33;;;7.20;99.90;;;;;;4969848;28;20038;-80
2023/02/16 09:06:44;;;;;;;52.10;42.05;;;7.30;99.90;;;;;;4959106;28;20078;-80
2023/02/16 09:09:12;;;;;;;53.08;43.75;;;6.80;99.90;;;;;;4958423;28;20516;-81
2023/02/16 09:11:37;;;;;;;53.17;43.67;;;7.50;99.90;;;;;;4970296;28;20090;-80
2023/02/16 09:14:05;;;;;;;53.38;43.72;;;7.10;99.90;;;;;;4968219;28;20043;-80
2023/02/16 09:16:54;;;;;;;51.50;42.75;;;7.10;99.90;;;;;;4970199;28;20035;-82
2023/02/16 09:19:29;;;;;;;51.33;41.88;;;6.50;99.90;;;;;;4952500;28;20061;-82
2023/02/16 09:21:55;;;;;;;50.85;42.15;;;7.00;99.90;;;;;;4974134;28;20070;-81
2023/02/16 09:25:09;;;;;;;;;;;;;;;;;;;;;
2023/02/16 09:28:20;;;;;;;54.38;44.10;;;7.00;99.90;;;;;;4959428;28;20160;-82
2023/02/16 09:30:54;;;;;;;55.40;43.20;;;7.70;99.90;;;;;;4953766;28;20545;-82
2023/02/16 09:33:38;;;;;;;55.35;42.78;;;7.20;99.90;;;;;;4984294;28;20116;-82
2023/02/16 09:36:14;;;;;;;51.97;42.40;;;7.20;99.90;;;;;;4975213;28;20464;-81
2023/02/16 09:38:50;;;;;;;50.67;41.70;;;7.40;99.90;;;;;;4957340;28;20035;-81
2023/02/16 09:41:51;;;;;;;53.03;42.88;;;7.80;99.90;;;;;;4969746;28;20340;-82
2023/02/16 09:45:13;;;;;;;52.05;42.90;;;7.20;99.90;;;;;;4985642;28;20062;-82
2023/02/16 09:47:57;;;;;;;49.13;40.28;;;7.50;99.90;;;;;;4942819;28;20066;-82
2023/02/16 09:50:27;;;;;;;52.67;42.63;;;7.40;99.90;;;;;;4968229;28;20035;-83
2023/02/16 09:53:25;;;;;;;52.95;42.03;;;7.20;99.90;;;;;;4965201;28;20101;-83
2023/02/16 09:56:08;;;;;;;54.30;42.67;;;7.20;99.90;;;;;;4947952;28;20105;-83
2023/02/16 09:58:59;;;;;;;50.97;43.78;;;7.30;99.90;;;;;;4981083;28;20035;-84
2023/02/16 10:02:00;;;;;;;53.00;43.72;;;7.30;99.90;;;;;;4961284;28;20063;-83
2023/02/16 10:05:11;;;;;;;53.92;43.63;;;7.30;99.90;;;;;;4945179;28;20437;-83
2023/02/16 10:07:59;;;;;;;53.78;43.90;;;7.30;99.90;;;;;;4980908;28;20099;-83
2023/02/16 10:10:58;;;;;;;50.95;44.00;;;8.20;99.90;;;;;;4951116;28;20069;-83
2023/02/16 10:13:45;;;;;;;60.88;44.78;;;7.50;99.90;;;;;;4950700;28;20066;-83
2023/02/16 10:16:37;;;;;;;57.72;43.88;;;7.30;99.90;;;;;;4964442;28;20042;-82
2023/02/16 10:19:41;;;;;;;55.53;44.22;;;7.70;99.90;;;;;;4951559;28;20121;-82
2023/02/16 10:22:16;;;;;;;57.83;45.13;;;7.60;99.90;;;;;;4967357;28;20042;-83
2023/02/16 10:25:31;;;;;;;;;;;;;;;;;;;;;
2023/02/16 10:28:19;;;;;;;;;;;7.70;99.90;;;;;;4979012;28;20042;-81
2023/02/16 10:31:11;;;;;;;59.30;45.85;;;7.70;99.90;;;;;;4984331;28;20340;-82
2023/02/16 10:34:24;;;;;;;60.80;45.70;;;7.80;99.90;;;;;;4958594;28;20824;-81
2023/02/16 10:37:29;;;;;;;61.22;46.53;;;7.80;99.90;;;;;;4978889;28;20745;-81
2023/02/16 10:40:31;;;;;;;59.05;48.05;;;7.90;99.90;;;;;;4969657;28;20042;-82
2023/02/16 10:43:29;;;;;;;64.45;48.88;;;8.40;99.90;;;;;;4955612;28;20042;-81
2023/02/16 10:50:14;;;;;;;61.88;48.97;;;7.80;99.90;;;;;;4933165;29;20039;-81
2023/02/16 10:53:40;;;;;;;63.92;49.97;;;8.20;99.90;;;;;;4968506;28;20042;-82
2023/02/16 10:56:41;;;;;;;68.15;50.15;;;8.30;99.90;;;;;;4942123;28;20054;-82
2023/02/16 10:59:58;;;;;;;64.47;47.22;;;7.80;99.90;;;;;;4964359;28;20127;-81
2023/02/16 11:02:32;;;;;;;68.57;49.88;;;7.90;99.90;;;;;;4966290;28;20546;-82
2023/02/16 11:05:20;;;;;;;63.83;48.28;;;7.80;99.90;;;;;;4965414;28;20035;-82
2023/02/16 11:07:56;;;;;;;67.18;51.38;;;7.90;99.90;;;;;;4950648;28;20125;-82
2023/02/16 11:10:39;;;;;;;67.47;52.88;;;7.70;99.90;;;;;;4962989;28;20054;-82
2023/02/16 11:13:31;;;;;;;68.45;51.70;;;7.60;99.90;;;;;;4966539;28;20038;-81
2023/02/16 11:16:18;;;;;;;66.07;50.33;;;8.00;99.90;;;;;;4970123;28;20568;-81
2023/02/16 11:18:53;;;;;;;58.83;48.97;;;8.10;99.90;;;;;;4967218;28;20042;-81
2023/02/16 11:21:20;;;;;;;;;;;8.50;99.90;;;;;;4968961;28;20130;-81
2023/02/16 11:23:56;;;;;;;;;;;8.10;99.90;;;;;;4956104;28;19918;-81
2023/02/16 11:26:23;;;;;;;;;;;8.10;99.90;;;;;;4969919;28;19966;-81
2023/02/16 11:28:50;;;;;;;59.58;48.38;;;8.20;99.90;;;;;;4951404;28;19926;-81
2023/02/16 11:31:32;;;;;;;62.03;48.78;;;8.50;99.90;;;;;;4968670;28;20109;-81
2023/02/16 11:34:30;;;;;;;59.53;48.13;;;8.40;99.90;;;;;;4970775;28;20054;-81
2023/02/16 11:37:25;;;;;;;58.67;45.53;;;8.50;99.90;;;;;;4934173;28;20142;-81
2023/02/16 11:40:22;;;;;;;65.03;48.08;;;8.10;99.90;;;;;;4968614;28;20664;-81
2023/02/16 11:42:52;;;;;;;62.03;49.20;;;8.20;99.90;;;;;;4961985;28;20122;-80
2023/02/16 11:45:34;;;;;;;65.78;48.17;;;9.00;99.90;;;;;;4987999;28;20039;-81
2023/02/16 11:48:11;;;;;;;60.85;48.50;;;8.30;99.90;;;;;;4970849;28;20044;-81
2023/02/16 11:50:40;;;;;;;65.53;49.75;;;8.20;99.90;;;;;;4951365;28;20082;-80
2023/02/16 11:53:10;;;;;;;65.57;49.20;;;8.50;99.90;;;;;;4966189;28;20066;-81
2023/02/16 11:55:42;;;;;;;71.18;49.88;;;8.90;99.90;;;;;;4966602;28;20649;-80
2023/02/16 11:58:21;;;;;;;62.78;49.67;;;8.50;99.90;;;;;;4966717;28;20998;-80
2023/02/16 12:00:49;;;;;;;59.90;49.88;;;9.80;99.90;;;;;;4969602;28;20204;-81
2023/02/16 12:03:27;;;;;;;60.70;49.22;;;8.30;99.90;;;;;;4954321;28;20042;-82
2023/02/16 12:06:01;;;;;;;61.53;49.92;;;8.40;99.90;;;;;;4972408;28;20035;-80
2023/02/16 12:08:45;;;;;;;62.65;49.33;;;9.20;99.90;;;;;;4974668;28;20108;-81
2023/02/16 12:11:25;;;;;;;59.35;48.30;;;8.60;99.90;;;;;;4973905;28;20070;-81
2023/02/16 12:14:02;;;;;;;61.13;47.97;;;8.90;99.90;;;;;;4959608;28;20042;-81
2023/02/16 12:16:48;;;;;;;64.90;49.03;;;8.60;99.90;;;;;;4971412;28;20102;-81
2023/02/16 12:19:17;;;;;;;56.88;45.55;;;8.70;99.90;;;;;;4987129;28;20086;-81
2023/02/16 12:21:48;;;;;;;57.50;47.75;;;8.90;99.90;;;;;;4985342;28;20207;-81
2023/02/16 12:24:17;;;;;;;60.92;46.88;;;9.40;99.90;;;;;;4986347;28;20038;-81
2023/02/16 12:26:54;;;;;;;57.90;46.33;;;9.10;99.90;;;;;;4969496;28;20030;-80
2023/02/16 12:29:38;;;;;;;55.95;46.10;;;9.00;99.90;;;;;;4972455;28;20058;-81
2023/02/16 12:32:16;;;;;;;53.42;43.83;;;9.60;99.90;;;;;;4991599;28;20069;-81
2023/02/16 12:35:06;;;;;;;57.42;46.08;;;9.60;99.90;;;;;;4984054;28;20070;-81
2023/02/16 12:37:58;;;;;;;54.45;45.28;;;9.70;99.90;;;;;;4975416;28;20038;-80
2023/02/16 12:40:30;;;;;;;48.40;42.97;;;9.90;99.90;;;;;;4970907;28;20039;-81
2023/02/16 12:43:30;;;;;;;48.50;42.25;;;10.10;99.90;;;;;;4969774;28;20102;-81
2023/02/16 12:46:03;;;;;;;48.88;41.75;;;10.40;99.90;;;;;;4965245;28;20081;-81
2023/02/16 12:48:42;;;;;;;46.97;41.00;;;10.80;99.90;;;;;;4967054;28;20050;-82
2023/02/16 12:51:26;;;;;;;44.53;38.45;;;11.40;99.90;;;;;;4970123;28;20057;-81
2023/02/16 12:53:58;;;;;;;43.10;38.47;;;10.70;99.90;;;;;;4985001;28;20043;-81
2023/02/16 12:56:31;;;;;;;44.45;39.55;;;11.10;99.90;;;;;;4984373;28;20085;-81
2023/02/16 12:59:11;;;;;;;46.45;39.97;;;10.80;99.90;;;;;;4985900;28;20102;-82
2023/02/16 13:01:37;;;;;;;43.83;36.40;;;10.90;99.90;;;;;;4965752;28;20118;-81
2023/02/16 13:04:29;;;;;;;39.97;35.45;;;11.10;99.90;;;;;;4966823;28;20129;-81
2023/02/16 13:07:02;;;;;;;40.78;36.38;;;10.90;99.90;;;;;;4936830;28;20042;-82
2023/02/16 13:09:59;;;;;;;42.15;37.65;;;11.30;99.90;;;;;;4969050;28;20401;-81
2023/02/16 13:12:31;;;;;;;41.35;35.67;;;11.00;99.90;;;;;;4972499;28;20035;-81
2023/02/16 13:15:13;;;;;;;40.75;35.40;;;11.80;99.90;;;;;;4952169;28;20082;-82
2023/02/16 13:17:54;;;;;;;40.50;35.88;;;10.80;99.90;;;;;;4971200;28;20035;-82
2023/02/16 13:20:22;;;;;;;39.53;34.00;;;11.00;99.90;;;;;;4969898;28;20533;-81
2023/02/16 13:23:16;;;;;;;38.63;34.38;;;10.80;99.90;;;;;;4954257;28;20054;-82
2023/02/16 13:25:53;;;;;;;41.20;36.75;;;10.90;99.90;;;;;;4953524;28;20047;-81
2023/02/16 13:28:46;;;;;;;39.40;35.20;;;11.20;99.90;;;;;;4952530;28;20053;-82
2023/02/16 13:31:38;;;;;;;41.88;35.25;;;11.00;99.90;;;;;;4960696;28;20049;-83
2023/02/16 13:34:56;;;;;;;35.65;31.85;;;11.20;99.90;;;;;;4958124;28;20070;-80
2023/02/16 13:37:53;;;;;;;34.47;30.85;;;10.90;99.90;;;;;;4974515;28;20072;-81
2023/02/16 13:40:41;;;;;;;37.47;32.67;;;11.00;99.90;;;;;;4992728;28;20038;-81
2023/02/16 13:43:29;;;;;;;38.67;34.17;;;11.10;99.90;;;;;;4986962;28;20109;-81
2023/02/16 13:45:55;;;;;;;34.65;31.05;;;11.20;99.90;;;;;;4978269;28;20125;-81
2023/02/16 13:48:23;;;;;;;36.00;29.30;;;11.20;99.90;;;;;;4987113;28;20034;-80
2023/02/16 13:51:00;;;;;;;32.22;28.73;;;11.00;99.90;;;;;;4976601;28;20061;-80
2023/02/16 13:53:33;;;;;;;33.80;27.90;;;11.10;99.90;;;;;;4973576;28;20689;-81
2023/02/16 13:56:21;;;;;;;29.40;26.30;;;11.20;99.90;;;;;;4968979;28;20046;-81
2023/02/16 13:58:49;;;;;;;30.70;26.98;;;10.80;99.90;;;;;;4986495;28;20094;-80